createdAt,value
2024-02-16T00:10:15.764Z,101490.41
2024-02-16T00:15:48.186Z,101496.44
2024-02-16T00:21:06.722Z,101492.41
2024-02-16T00:26:17.599Z,101479.72
2024-02-16T00:31:29.625Z,101487.38
2024-02-16T00:36:35.663Z,101480.03
2024-02-16T00:41:41.260Z,101468.06
2024-02-16T00:46:58.885Z,101470.00
2024-02-16T00:52:23.440Z,101461.84
2024-02-16T00:57:43.199Z,101443.09
2024-02-16T01:02:53.434Z,101448.97
2024-02-16T01:23:54.791Z,101457.97
2024-02-16T01:29:00.403Z,101454.53
2024-02-16T01:34:15.455Z,101458.13
2024-02-16T01:39:24.831Z,101461.53
2024-02-16T01:44:34.776Z,101457.97
2024-02-16T01:49:43.190Z,101458.13
2024-02-16T01:55:05.569Z,101461.09
2024-02-16T02:00:20.314Z,101447.06
2024-02-16T02:05:28.775Z,101444.69
2024-02-16T02:10:38.510Z,101447.78
2024-02-16T02:15:44.989Z,101443.97
2024-02-16T02:20:56.594Z,101446.47
2024-02-16T02:26:09.950Z,101438.66
2024-02-16T02:31:17.575Z,101438.94
2024-02-16T02:36:32.409Z,101449.25
2024-02-16T02:41:42.889Z,101453.53
2024-02-16T02:46:51.293Z,101458.41
2024-02-16T02:51:57.803Z,101452.22
2024-02-16T02:57:11.269Z,101456.63
2024-02-16T03:02:27.515Z,101446.31
2024-02-16T03:07:35.212Z,101459.75
2024-02-16T03:12:48.541Z,101452.06
2024-02-16T03:18:20.410Z,101455.19
2024-02-16T03:23:25.068Z,101461.94
2024-02-16T03:28:33.279Z,101465.34
2024-02-16T03:38:55.417Z,101454.28
2024-02-16T03:44:08.794Z,101470.19
2024-02-16T03:54:32.003Z,101483.34
2024-02-16T03:59:46.638Z,101470.09
2024-02-16T04:04:55.311Z,101483.50
2024-02-16T04:10:02.768Z,101468.91
2024-02-16T04:15:13.677Z,101465.75
2024-02-16T04:25:44.850Z,101454.09
2024-02-16T04:30:52.750Z,101452.75
2024-02-16T04:35:59.958Z,101456.88
2024-02-16T04:41:18.742Z,101449.66
2024-02-16T04:46:26.235Z,101429.34
2024-02-16T04:51:41.485Z,101442.75
2024-02-16T04:56:50.280Z,101448.53
2024-02-16T05:02:08.178Z,101451.03
2024-02-16T05:07:16.530Z,101464.59
2024-02-16T05:12:24.230Z,101456.00
2024-02-16T05:17:32.710Z,101459.66
2024-02-16T05:22:37.549Z,101447.69
2024-02-16T05:27:48.523Z,101448.56
2024-02-16T05:33:05.818Z,101446.38
2024-02-16T05:49:05.923Z,101446.16
2024-02-16T05:59:37.129Z,101462.56
2024-02-16T06:04:50.123Z,101463.09
2024-02-16T06:09:59.984Z,101470.69
2024-02-16T06:15:10.300Z,101467.81
2024-02-16T06:20:21.556Z,101472.09
2024-02-16T06:25:33.870Z,101477.38
2024-02-16T06:30:44.460Z,101480.31
2024-02-16T06:35:53.434Z,101484.38
2024-02-16T06:41:05.248Z,101488.81
2024-02-16T06:46:13.242Z,101484.91
2024-02-16T06:51:20.950Z,101487.34
2024-02-16T07:01:44.668Z,101477.00
2024-02-16T07:06:57.729Z,101491.06
2024-02-16T07:12:08.165Z,101484.44
2024-02-16T07:17:16.432Z,101463.19
2024-02-16T07:33:14.558Z,101479.06
2024-02-16T07:38:29.506Z,101479.34
2024-02-16T07:43:41.149Z,101466.19
2024-02-16T07:48:53.734Z,101465.97
2024-02-16T07:59:16.570Z,101456.03
2024-02-16T08:04:40.066Z,101458.66
2024-02-16T08:09:55.203Z,101467.75
2024-02-16T08:15:11.741Z,101476.06
2024-02-16T08:25:39.236Z,101499.16
2024-02-16T08:30:47.234Z,101500.03
2024-02-16T08:35:57.369Z,101508.44
2024-02-16T08:41:06.380Z,101504.16
2024-02-16T08:51:25.957Z,101475.41
2024-02-16T08:56:32.610Z,101497.53
2024-02-16T09:01:41.336Z,101485.91
2024-02-16T09:06:50.587Z,101488.19
2024-02-16T09:12:04.736Z,101486.28
2024-02-16T09:17:12.226Z,101460.34
2024-02-16T09:22:37.024Z,101489.69
2024-02-16T09:27:54.019Z,101493.09
2024-02-16T09:33:04.100Z,101472.81
2024-02-16T09:43:39.543Z,101487.19
2024-02-16T09:49:09.589Z,101472.06
2024-02-16T09:54:18.072Z,101455.69
2024-02-16T09:59:28.131Z,101467.78
2024-02-16T10:09:49.847Z,101444.00
2024-02-16T10:15:07.924Z,101433.41
2024-02-16T10:25:45.575Z,101416.88
2024-02-16T10:30:56.501Z,101399.19
2024-02-16T10:36:09.442Z,101418.59
2024-02-16T10:41:16.792Z,101429.41
2024-02-16T10:46:30.543Z,101419.94
2024-02-16T10:51:40.464Z,101437.16
2024-02-16T10:56:46.790Z,101432.81
2024-02-16T11:07:24.939Z,101427.84
2024-02-16T11:12:43.696Z,101436.34
2024-02-16T11:17:54.573Z,101441.75
2024-02-16T11:23:09.720Z,101445.25
2024-02-16T11:28:16.574Z,101440.97
2024-02-16T11:33:23.296Z,101422.53
2024-02-16T11:38:43.284Z,101428.28
2024-02-16T11:44:03.548Z,101426.38
2024-02-16T11:49:14.726Z,101425.88
2024-02-16T11:59:38.264Z,101432.06
2024-02-16T12:04:55.541Z,101421.19
2024-02-16T12:10:20.021Z,101414.19
2024-02-16T12:15:26.151Z,101425.38
2024-02-16T12:26:10.476Z,101425.84
2024-02-16T12:31:23.750Z,101425.84
2024-02-16T12:36:37.240Z,101421.66
2024-02-16T12:48:39.005Z,101441.56
2024-02-16T12:53:48.985Z,101449.84
2024-02-16T12:59:01.121Z,101454.16
2024-02-16T13:04:11.524Z,101440.53
2024-02-16T13:09:20.754Z,101466.50
2024-02-16T13:14:33.168Z,101469.69
2024-02-16T13:19:39.878Z,101472.44
2024-02-16T13:29:57.024Z,101454.16
2024-02-16T13:35:05.562Z,101465.97
2024-02-16T13:40:15.602Z,101479.94
2024-02-16T13:45:27.398Z,101464.28
2024-02-16T13:50:36.047Z,101479.22
2024-02-16T13:55:42.164Z,101464.56
2024-02-16T14:00:47.448Z,101458.16
2024-02-16T14:06:05.931Z,101445.34
2024-02-16T14:11:18.229Z,101473.31
2024-02-16T14:16:27.803Z,101468.03
2024-02-16T14:21:40.052Z,101462.97
2024-02-16T14:26:47.041Z,101463.66
2024-02-16T14:31:54.690Z,101464.19
2024-02-16T14:37:10.442Z,101467.25
2024-02-16T14:42:15.398Z,101464.75
2024-02-16T14:52:51.759Z,101466.78
2024-02-16T14:57:56.253Z,101462.94
2024-02-16T15:03:01.433Z,101456.00
2024-02-16T15:13:43.594Z,101438.59
2024-02-16T15:19:04.415Z,101462.72
2024-02-16T15:24:18.289Z,101446.06
2024-02-16T15:34:45.000Z,101433.16
2024-02-16T15:39:57.757Z,101463.75
2024-02-16T15:45:05.962Z,101461.63
2024-02-16T15:50:19.409Z,101459.09
2024-02-16T15:55:29.878Z,101425.94
2024-02-16T16:00:37.858Z,101472.28
2024-02-16T16:11:07.438Z,101464.13
2024-02-16T16:16:19.204Z,101446.97
2024-02-16T16:21:25.180Z,101478.53
2024-02-16T16:26:41.719Z,101479.97
2024-02-16T16:31:56.431Z,101477.78
2024-02-16T16:37:03.319Z,101488.31
2024-02-16T16:42:13.438Z,101477.31
2024-02-16T16:47:26.178Z,101480.38
2024-02-16T16:52:31.825Z,101485.22
2024-02-16T16:57:39.713Z,101481.94
2024-02-16T17:02:47.124Z,101484.44
2024-02-16T17:07:53.397Z,101481.41
2024-02-16T17:13:03.766Z,101484.78
2024-02-16T17:18:15.548Z,101477.31
2024-02-16T17:23:26.498Z,101483.84
2024-02-16T17:28:38.149Z,101470.00
2024-02-16T17:44:24.852Z,101467.69
2024-02-16T17:49:31.673Z,101460.16
2024-02-16T17:54:41.947Z,101464.81
2024-02-16T17:59:57.645Z,101462.28
2024-02-16T18:05:14.412Z,101467.19
2024-02-16T18:10:22.616Z,101463.66
2024-02-16T18:15:33.345Z,101477.88
2024-02-16T18:20:39.100Z,101466.72
2024-02-16T18:25:50.193Z,101463.59
2024-02-16T18:31:08.701Z,101446.47
2024-02-16T18:36:31.976Z,101446.59
2024-02-16T18:41:40.938Z,101454.50
2024-02-16T18:46:59.954Z,101433.31
2024-02-16T18:57:26.967Z,101400.44
2024-02-16T19:02:35.155Z,101444.38
2024-02-16T19:07:41.001Z,101437.94
2024-02-16T19:12:48.663Z,101440.47
2024-02-16T19:23:13.456Z,101434.38
2024-02-16T19:28:22.188Z,101443.72
2024-02-16T19:39:03.119Z,101443.19
2024-02-16T19:44:13.050Z,101436.91
2024-02-16T19:49:24.349Z,101412.78
2024-02-16T19:54:30.668Z,101428.50
2024-02-16T19:59:35.703Z,101426.13
2024-02-16T20:04:44.159Z,101415.19
2024-02-16T20:15:06.125Z,101414.25
2024-02-16T20:25:26.562Z,101403.34
2024-02-16T20:35:56.592Z,101411.00
2024-02-16T20:41:10.276Z,101395.28
2024-02-16T20:46:24.809Z,101404.63
2024-02-16T20:51:37.243Z,101403.13
2024-02-16T20:56:49.460Z,101394.06
2024-02-16T21:01:59.275Z,101375.72
2024-02-16T21:07:07.963Z,101369.81
2024-02-16T21:12:21.045Z,101378.38
2024-02-16T21:17:27.809Z,101370.34
2024-02-16T21:22:41.496Z,101382.78
2024-02-16T21:27:58.456Z,101373.16
2024-02-16T21:38:22.111Z,101360.97
2024-02-16T21:48:54.827Z,101373.53
2024-02-16T21:54:07.214Z,101336.78
2024-02-16T21:59:12.683Z,101350.00
2024-02-16T22:04:20.414Z,101370.06
2024-02-16T22:09:27.316Z,101379.34
2024-02-16T22:14:32.542Z,101374.06
2024-02-16T22:19:43.173Z,101372.59
2024-02-16T22:24:52.857Z,101355.47
2024-02-16T22:30:03.217Z,101363.53
2024-02-16T22:35:15.312Z,101367.69
2024-02-16T22:40:26.238Z,101360.16
2024-02-16T22:45:37.531Z,101352.47
2024-02-16T22:56:00.671Z,101348.31
2024-02-16T23:01:13.099Z,101341.66
2024-02-16T23:06:23.174Z,101335.00
2024-02-16T23:11:30.171Z,101329.72
2024-02-16T23:16:35.949Z,101328.22
2024-02-16T23:21:45.893Z,101326.09
2024-02-16T23:26:53.404Z,101318.94
2024-02-16T23:32:02.095Z,101308.63
2024-02-16T23:37:11.375Z,101302.72
2024-02-16T23:42:28.212Z,101262.09
2024-02-16T23:47:33.812Z,101275.56
2024-02-16T23:52:42.124Z,101273.03
2024-02-16T23:57:51.880Z,101260.34
